Time;durP1;ratioP1;P1;durP2;ratioP2;P2;SDS_P1;SDS_P2;PMS_P1;PMS_P2;Temp;Humidity;BMP_temperature;BMP_pressure;BME280_temperature;BME280_humidity;BME280_pressure;Samples;Min_cycle;Max_cycle;Signal;HPM_P1;HPM_P2
2024/01/01 00:02:30;;;;;;;25.70;15.93;;;8.00;99.90;;;;;;5033623;28;20505;-73
2024/01/01 00:05:18;;;;;;;26.13;18.23;;;8.00;99.90;;;;;;5039552;28;20450;-72
2024/01/01 00:08:04;;;;;;;32.40;18.73;;;7.90;99.90;;;;;;5039251;28;20545;-69
2024/01/01 00:10:49;;;;;;;31.77;20.80;;;7.90;99.90;;;;;;5040733;28;20563;-73
2024/01/01 00:13:35;;;;;;;29.67;17.33;;;7.80;99.90;;;;;;5046708;28;20457;-73
2024/01/01 00:16:21;;;;;;;35.20;21.77;;;7.80;99.90;;;;;;5048117;28;20516;-73
2024/01/01 00:19:06;;;;;;;28.13;19.53;;;7.90;99.90;;;;;;5044408;28;21001;-73
2024/01/01 00:21:53;;;;;;;24.50;16.97;;;7.90;99.90;;;;;;5046242;28;20451;-72
2024/01/01 00:24:39;;;;;;;24.70;15.87;;;7.90;99.90;;;;;;5047324;28;20458;-73
2024/01/01 00:27:25;;;;;;;25.67;14.80;;;7.90;99.90;;;;;;5048948;28;20435;-73
2024/01/01 00:30:12;;;;;;;18.80;12.57;;;7.80;99.90;;;;;;5050188;28;20917;-73
2024/01/01 00:32:57;;;;;;;21.40;11.00;;;7.80;99.90;;;;;;5041625;28;20437;-72
2024/01/01 00:35:43;;;;;;;12.63;8.40;;;7.70;99.90;;;;;;5040201;28;20455;-73
2024/01/01 00:38:30;;;;;;;13.30;7.23;;;7.70;99.90;;;;;;5047599;28;20573;-73
2024/01/01 00:41:17;;;;;;;13.07;6.60;;;7.70;99.90;;;;;;5041945;28;20430;-73
2024/01/01 00:44:02;;;;;;;12.20;6.30;;;7.70;99.90;;;;;;5033384;28;20457;-72
2024/01/01 00:46:48;;;;;;;8.97;5.90;;;7.70;99.90;;;;;;5042502;28;20411;-72
2024/01/01 00:49:34;;;;;;;12.30;7.93;;;7.70;99.90;;;;;;5045546;28;20580;-73
2024/01/01 00:52:19;;;;;;;12.67;8.10;;;7.80;99.90;;;;;;5048730;28;20430;-73
2024/01/01 00:55:07;;;;;;;15.37;8.37;;;7.80;99.90;;;;;;5040119;28;20454;-73
2024/01/01 00:57:53;;;;;;;17.17;9.57;;;7.90;99.90;;;;;;5036038;28;20495;-73
2024/01/01 01:00:39;;;;;;;19.80;10.07;;;7.90;99.90;;;;;;5049256;28;21012;-72
2024/01/01 01:03:24;;;;;;;14.97;9.40;;;7.90;99.90;;;;;;5041552;28;20458;-72
2024/01/01 01:06:10;;;;;;;29.47;10.80;;;7.90;99.90;;;;;;5047882;28;20427;-72
2024/01/01 01:08:56;;;;;;;13.40;8.93;;;8.00;99.90;;;;;;5048993;28;20438;-72
2024/01/01 01:11:43;;;;;;;15.00;7.80;;;8.00;99.90;;;;;;5038152;28;20993;-71
2024/01/01 01:14:28;;;;;;;16.50;8.47;;;8.00;99.90;;;;;;5047017;28;20476;-72
2024/01/01 01:17:14;;;;;;;17.10;7.30;;;8.10;99.90;;;;;;5049276;28;20480;-72
2024/01/01 01:20:00;;;;;;;15.20;8.80;;;8.10;99.90;;;;;;5048391;28;20937;-71
2024/01/01 01:22:46;;;;;;;17.63;8.20;;;8.00;99.90;;;;;;5039353;28;20947;-72
2024/01/01 01:25:32;;;;;;;13.53;7.20;;;8.00;99.90;;;;;;5049204;28;20460;-72
2024/01/01 01:28:23;;;;;;;14.43;7.23;;;8.00;99.90;;;;;;5048025;28;20477;-73
2024/01/01 01:31:09;;;;;;;15.40;6.93;;;8.00;99.90;;;;;;5040910;28;20770;-73
2024/01/01 01:33:54;;;;;;;12.97;7.00;;;8.00;99.90;;;;;;5049116;28;20453;-73
2024/01/01 01:36:40;;;;;;;8.97;5.50;;;8.00;99.90;;;;;;5043234;28;20546;-72
2024/01/01 01:39:26;;;;;;;10.87;6.10;;;8.10;99.90;;;;;;5044805;28;20432;-72
2024/01/01 01:42:11;;;;;;;11.67;4.97;;;8.10;99.90;;;;;;5046416;28;20946;-72
2024/01/01 01:44:59;;;;;;;9.73;5.40;;;8.10;99.90;;;;;;5049635;28;20900;-73
2024/01/01 01:47:45;;;;;;;10.90;4.70;;;8.10;99.90;;;;;;5049203;28;20957;-72
2024/01/01 01:50:30;;;;;;;14.73;5.43;;;8.10;99.90;;;;;;5049196;28;20439;-72
2024/01/01 01:53:23;;;;;;;11.10;5.30;;;8.00;99.90;;;;;;5049907;28;20433;-72
2024/01/01 01:56:09;;;;;;;8.73;4.10;;;8.00;99.90;;;;;;5040993;28;20464;-73
2024/01/01 01:58:55;;;;;;;10.20;5.37;;;8.00;99.90;;;;;;5050234;28;21060;-72
2024/01/01 02:01:43;;;;;;;13.30;4.30;;;8.00;99.90;;;;;;5047244;28;20967;-72
2024/01/01 02:04:29;;;;;;;10.03;5.20;;;8.00;99.90;;;;;;5047657;28;20482;-72
2024/01/01 02:07:15;;;;;;;12.97;6.03;;;8.00;99.90;;;;;;5045972;28;20431;-72
2024/01/01 02:10:00;;;;;;;12.43;4.63;;;8.00;99.90;;;;;;5038619;28;20563;-71
2024/01/01 02:12:46;;;;;;;6.83;4.37;;;8.00;99.90;;;;;;5050487;28;20424;-72
2024/01/01 02:15:31;;;;;;;10.80;4.00;;;8.00;99.90;;;;;;5047350;28;20600;-72
2024/01/01 02:18:18;;;;;;;10.17;4.87;;;8.00;99.90;;;;;;5051021;28;20406;-73
2024/01/01 02:21:05;;;;;;;13.33;4.93;;;8.00;99.90;;;;;;5039676;28;20451;-72
2024/01/01 02:23:52;;;;;;;14.20;4.80;;;8.00;99.90;;;;;;5049571;28;20469;-72
2024/01/01 02:26:37;;;;;;;11.10;4.60;;;8.00;99.90;;;;;;5043694;28;20543;-72
2024/01/01 02:29:23;;;;;;;9.37;4.80;;;8.10;99.90;;;;;;5049795;28;20461;-70
2024/01/01 02:32:08;;;;;;;10.87;4.63;;;8.00;99.90;;;;;;5044139;28;20446;-72
2024/01/01 02:34:54;;;;;;;9.83;5.30;;;8.10;99.90;;;;;;5045060;28;20788;-71
2024/01/01 02:37:39;;;;;;;13.17;5.33;;;8.10;99.90;;;;;;5049597;28;20438;-72
2024/01/01 02:40:26;;;;;;;14.13;6.07;;;8.10;99.90;;;;;;5049438;28;20571;-71
2024/01/01 02:43:12;;;;;;;13.20;5.87;;;8.10;99.90;;;;;;5050583;28;20431;-72
2024/01/01 02:45:58;;;;;;;9.77;5.30;;;8.30;99.90;;;;;;5050571;28;20413;-72
2024/01/01 02:48:44;;;;;;;9.30;5.13;;;8.30;99.90;;;;;;5044956;28;20837;-72
2024/01/01 02:51:29;;;;;;;13.53;6.20;;;8.20;99.90;;;;;;5030550;28;20446;-71
2024/01/01 02:54:16;;;;;;;12.23;5.30;;;8.20;99.90;;;;;;5027125;28;20448;-72
2024/01/01 02:57:03;;;;;;;10.97;5.60;;;8.10;99.90;;;;;;5019479;28;20448;-72
2024/01/01 02:59:49;;;;;;;12.53;5.60;;;8.10;99.90;;;;;;5019575;28;20502;-74
2024/01/01 03:02:34;;;;;;;10.13;4.93;;;8.20;99.90;;;;;;5027404;28;20517;-71
2024/01/01 03:05:22;;;;;;;9.90;5.10;;;8.20;99.90;;;;;;5032652;28;20813;-72
2024/01/01 03:08:09;;;;;;;8.83;5.70;;;8.30;99.90;;;;;;5033621;28;20435;-72
2024/01/01 03:10:55;;;;;;;10.60;5.13;;;8.30;99.90;;;;;;5036503;28;20435;-72
2024/01/01 03:13:42;;;;;;;11.57;5.50;;;8.20;99.90;;;;;;5028796;28;20441;-73
2024/01/01 03:16:27;;;;;;;9.30;5.03;;;8.20;99.90;;;;;;5030828;28;20569;-73
2024/01/01 03:19:13;;;;;;;11.50;4.90;;;8.20;99.90;;;;;;5032101;28;20403;-72
2024/01/01 03:21:59;;;;;;;15.27;5.20;;;8.20;99.90;;;;;;5025406;28;20897;-72
2024/01/01 03:24:45;;;;;;;7.97;5.03;;;8.20;99.90;;;;;;5012705;28;20467;-72
2024/01/01 03:27:30;;;;;;;8.53;4.30;;;8.20;99.90;;;;;;5037323;28;20478;-72
2024/01/01 03:30:19;;;;;;;9.77;4.10;;;8.10;99.90;;;;;;5020863;28;20589;-72
2024/01/01 03:33:05;;;;;;;9.13;3.97;;;8.10;99.90;;;;;;5027054;28;20455;-72
2024/01/01 03:35:51;;;;;;;13.50;4.87;;;8.20;99.90;;;;;;5017023;28;20449;-71
2024/01/01 03:38:36;;;;;;;8.53;4.10;;;8.10;99.90;;;;;;5026388;28;20396;-73
2024/01/01 03:41:26;;;;;;;11.53;3.87;;;8.10;99.90;;;;;;5038531;28;20430;-73
2024/01/01 03:44:12;;;;;;;10.60;4.57;;;8.10;99.90;;;;;;5039556;28;20591;-73
2024/01/01 03:46:59;;;;;;;8.13;3.50;;;8.10;99.90;;;;;;5049344;28;20796;-73
2024/01/01 03:49:44;;;;;;;12.87;4.60;;;8.10;99.90;;;;;;5043693;28;20795;-74
2024/01/01 03:52:30;;;;;;;8.47;3.73;;;8.10;99.90;;;;;;5044793;28;20429;-72
2024/01/01 03:55:16;;;;;;;7.87;3.73;;;8.00;99.90;;;;;;5030494;28;20809;-72
2024/01/01 03:58:02;;;;;;;7.87;3.03;;;8.00;99.90;;;;;;5035243;28;20491;-72
2024/01/01 04:00:48;;;;;;;10.73;3.10;;;8.00;99.90;;;;;;5032019;28;20571;-72
2024/01/01 04:03:35;;;;;;;7.00;3.47;;;8.00;99.90;;;;;;5030887;28;20933;-72
2024/01/01 04:06:20;;;;;;;13.83;3.90;;;8.00;99.90;;;;;;5024094;28;20755;-70
2024/01/01 04:09:06;;;;;;;7.13;3.27;;;8.00;99.90;;;;;;5035848;28;20464;-72
2024/01/01 04:11:52;;;;;;;7.53;2.90;;;8.00;99.90;;;;;;5039663;28;20957;-72
2024/01/01 04:14:37;;;;;;;10.23;3.27;;;8.00;99.90;;;;;;5025853;28;20973;-71
2024/01/01 04:17:23;;;;;;;15.03;3.00;;;8.10;99.90;;;;;;5040338;28;20782;-71
2024/01/01 04:20:11;;;;;;;6.50;2.83;;;8.00;99.90;;;;;;5028002;28;20555;-73
2024/01/01 04:22:57;;;;;;;7.03;2.67;;;8.00;99.90;;;;;;5032989;28;20482;-72
2024/01/01 04:25:43;;;;;;;15.07;3.20;;;8.00;99.90;;;;;;5033309;28;20862;-72
2024/01/01 04:28:29;;;;;;;7.63;2.90;;;7.90;99.90;;;;;;5033380;28;20444;-71
2024/01/01 04:31:14;;;;;;;9.93;3.47;;;7.90;99.90;;;;;;5026301;28;20473;-71
2024/01/01 04:34:00;;;;;;;10.90;3.07;;;7.90;99.90;;;;;;5033844;28;20443;-71
2024/01/01 04:36:47;;;;;;;13.87;4.83;;;7.90;99.90;;;;;;5027728;28;20425;-71
2024/01/01 04:39:32;;;;;;;12.77;3.00;;;7.90;99.90;;;;;;5031361;28;20482;-72
2024/01/01 04:42:18;;;;;;;5.93;2.60;;;7.80;99.90;;;;;;5031049;28;20569;-72
2024/01/01 04:45:04;;;;;;;8.83;2.80;;;7.80;99.90;;;;;;5023549;28;20475;-72
2024/01/01 04:47:50;;;;;;;6.77;3.50;;;7.90;99.90;;;;;;5019383;28;21347;-73
2024/01/01 04:50:36;;;;;;;14.40;2.90;;;7.90;99.90;;;;;;5034787;28;20828;-71
2024/01/01 04:53:23;;;;;;;10.53;3.73;;;7.90;99.90;;;;;;5035014;28;20435;-72
2024/01/01 04:56:08;;;;;;;9.73;3.20;;;7.90;99.90;;;;;;5017465;28;20847;-71
2024/01/01 04:58:54;;;;;;;9.47;3.20;;;7.90;99.90;;;;;;5024508;28;20487;-71
2024/01/01 05:01:39;;;;;;;9.70;3.03;;;7.90;99.90;;;;;;5029283;28;20551;-71
2024/01/01 05:04:25;;;;;;;10.90;3.17;;;7.80;99.90;;;;;;5034076;28;20770;-71
2024/01/01 05:07:11;;;;;;;12.00;2.80;;;7.80;99.90;;;;;;5046577;28;20523;-71
2024/01/01 05:09:58;;;;;;;8.80;3.60;;;7.80;99.90;;;;;;5038605;28;20823;-73
2024/01/01 05:12:44;;;;;;;8.13;3.73;;;7.70;99.90;;;;;;5050363;28;20412;-71
2024/01/01 05:15:30;;;;;;;11.30;3.30;;;7.70;99.90;;;;;;5025226;28;20927;-71
2024/01/01 05:18:16;;;;;;;17.77;3.60;;;7.70;99.90;;;;;;5026874;28;20583;-71
2024/01/01 05:21:01;;;;;;;9.93;3.30;;;7.60;99.90;;;;;;5026161;28;20511;-71
2024/01/01 05:23:47;;;;;;;7.70;2.60;;;7.70;99.90;;;;;;5033250;28;20442;-72
2024/01/01 05:26:34;;;;;;;11.00;4.53;;;7.60;99.90;;;;;;5035226;28;20482;-71
2024/01/01 05:29:19;;;;;;;6.90;3.40;;;7.50;99.90;;;;;;5019120;28;20474;-72
2024/01/01 05:32:06;;;;;;;12.10;3.80;;;7.50;99.90;;;;;;5019425;28;20433;-72
2024/01/01 05:34:51;;;;;;;11.63;3.20;;;7.50;99.90;;;;;;5030438;28;20442;-73
2024/01/01 05:37:37;;;;;;;9.67;4.03;;;7.50;99.90;;;;;;5030140;28;20450;-73
2024/01/01 05:40:22;;;;;;;8.30;3.07;;;7.50;99.90;;;;;;5038843;28;20405;-71
2024/01/01 05:43:09;;;;;;;10.93;4.30;;;7.50;99.90;;;;;;5031977;28;20434;-71
2024/01/01 05:45:54;;;;;;;15.23;3.60;;;7.50;99.90;;;;;;5036145;28;20534;-71
2024/01/01 05:48:40;;;;;;;11.60;3.00;;;7.50;99.90;;;;;;5022998;28;20422;-71
2024/01/01 05:51:26;;;;;;;11.13;4.20;;;7.50;99.90;;;;;;5027498;28;20805;-72
2024/01/01 05:54:12;;;;;;;16.37;3.77;;;7.50;99.90;;;;;;5027206;28;20451;-73
2024/01/01 05:56:57;;;;;;;11.97;3.80;;;7.60;99.90;;;;;;5047621;28;20440;-71
2024/01/01 05:59:44;;;;;;;12.83;3.50;;;7.60;99.90;;;;;;5028149;28;20426;-71
2024/01/01 06:02:29;;;;;;;19.33;3.20;;;7.60;99.90;;;;;;5021090;28;20451;-71
2024/01/01 06:05:15;;;;;;;12.80;2.87;;;7.60;99.90;;;;;;5024951;28;20579;-70
2024/01/01 06:08:01;;;;;;;17.53;3.27;;;7.50;99.90;;;;;;5023307;28;20446;-72
2024/01/01 06:10:47;;;;;;;12.40;3.20;;;7.50;99.90;;;;;;5036650;28;20564;-71
2024/01/01 06:13:33;;;;;;;10.90;2.90;;;7.50;99.90;;;;;;5044525;28;20431;-70
2024/01/01 06:16:20;;;;;;;9.93;3.57;;;7.50;99.90;;;;;;5027344;28;20797;-72
2024/01/01 06:19:07;;;;;;;8.97;3.30;;;7.50;99.90;;;;;;5030888;28;20500;-71
2024/01/01 06:21:52;;;;;;;10.13;3.10;;;7.50;99.90;;;;;;5030971;28;20434;-73
2024/01/01 06:24:38;;;;;;;14.30;3.17;;;7.50;99.90;;;;;;5032656;28;20441;-71
2024/01/01 06:27:24;;;;;;;14.77;3.40;;;7.50;99.90;;;;;;5039009;28;20503;-71
2024/01/01 06:30:10;;;;;;;5.57;2.90;;;7.50;99.90;;;;;;5024927;28;20997;-71
2024/01/01 06:32:57;;;;;;;16.20;4.00;;;7.50;99.90;;;;;;5029929;28;20453;-71
2024/01/01 06:35:42;;;;;;;14.20;4.90;;;7.50;99.90;;;;;;5033714;28;21072;-70
2024/01/01 06:38:28;;;;;;;8.33;2.73;;;7.40;99.90;;;;;;5034150;28;21019;-71
2024/01/01 06:41:14;;;;;;;8.40;2.83;;;7.40;99.90;;;;;;5022483;28;20448;-71
2024/01/01 06:44:00;;;;;;;10.70;2.87;;;7.40;99.90;;;;;;5040510;28;20437;-71
2024/01/01 06:46:45;;;;;;;7.97;2.57;;;7.40;99.90;;;;;;5043365;28;20511;-71
2024/01/01 06:49:32;;;;;;;17.90;3.17;;;7.40;99.90;;;;;;5043530;28;20481;-72
2024/01/01 06:52:18;;;;;;;10.57;2.33;;;7.40;99.90;;;;;;5029372;28;20430;-73
2024/01/01 06:55:05;;;;;;;12.20;3.07;;;7.40;99.90;;;;;;5028315;28;20448;-72
2024/01/01 06:57:52;;;;;;;8.93;3.00;;;7.40;99.90;;;;;;5039713;28;20426;-71
2024/01/01 07:00:38;;;;;;;12.63;2.43;;;7.40;99.90;;;;;;5037484;28;20428;-71
2024/01/01 07:03:24;;;;;;;12.80;2.13;;;7.40;99.90;;;;;;5026280;28;20447;-75
2024/01/01 07:06:11;;;;;;;9.10;2.00;;;7.50;99.90;;;;;;5033254;28;20796;-72
2024/01/01 07:08:56;;;;;;;6.03;2.20;;;7.40;99.90;;;;;;5029975;28;20438;-71
2024/01/01 07:11:42;;;;;;;16.10;2.70;;;7.50;99.90;;;;;;5036905;28;20423;-71
2024/01/01 07:14:28;;;;;;;8.30;2.40;;;7.50;99.90;;;;;;5023206;28;20959;-72
2024/01/01 07:17:13;;;;;;;11.17;2.40;;;7.50;99.90;;;;;;5029939;28;20428;-73
2024/01/01 07:20:00;;;;;;;8.23;2.50;;;7.50;99.90;;;;;;5036812;28;20426;-71
2024/01/01 07:22:47;;;;;;;6.90;2.53;;;7.40;99.90;;;;;;5049075;28;20485;-71
2024/01/01 07:25:32;;;;;;;11.73;2.70;;;7.40;99.90;;;;;;5038969;28;20470;-72
2024/01/01 07:28:18;;;;;;;9.43;2.70;;;7.40;99.90;;;;;;5033771;28;20424;-72
2024/01/01 07:31:04;;;;;;;9.50;2.70;;;7.40;99.90;;;;;;5039245;28;20475;-71
2024/01/01 07:33:50;;;;;;;7.57;2.30;;;7.40;99.90;;;;;;5033946;28;20429;-73
2024/01/01 07:36:36;;;;;;;9.27;2.20;;;7.30;99.90;;;;;;5039440;28;20434;-71
2024/01/01 07:39:23;;;;;;;7.75;2.83;;;7.40;99.90;;;;;;5033415;28;20459;-71
2024/01/01 07:42:08;;;;;;;10.90;2.40;;;7.40;99.90;;;;;;5037695;28;20674;-72
2024/01/01 07:44:54;;;;;;;10.90;2.90;;;7.40;99.90;;;;;;5030617;28;20449;-71
2024/01/01 07:47:39;;;;;;;12.47;2.67;;;7.40;99.90;;;;;;5044093;28;20558;-71
2024/01/01 07:50:25;;;;;;;9.67;2.10;;;7.50;99.90;;;;;;5029752;28;20474;-71
2024/01/01 07:53:11;;;;;;;15.27;2.40;;;7.50;99.90;;;;;;5036491;28;20444;-71
2024/01/01 07:56:01;;;;;;;13.27;2.37;;;7.50;99.90;;;;;;5049203;28;20568;-72
2024/01/01 07:58:47;;;;;;;8.07;2.60;;;7.50;99.90;;;;;;5040080;28;20449;-71
2024/01/01 08:01:32;;;;;;;14.53;2.47;;;7.60;99.90;;;;;;5035120;28;20509;-71
2024/01/01 08:04:18;;;;;;;17.43;2.67;;;7.50;99.90;;;;;;5045064;28;20528;-71
2024/01/01 08:07:04;;;;;;;9.30;1.90;;;7.60;99.90;;;;;;5043151;28;20438;-71
2024/01/01 08:09:50;;;;;;;6.77;1.83;;;7.60;99.90;;;;;;5032220;28;20423;-71
2024/01/01 08:12:37;;;;;;;11.47;2.60;;;7.60;99.90;;;;;;5031269;28;20506;-71
2024/01/01 08:15:24;;;;;;;16.87;2.40;;;7.60;99.90;;;;;;5033492;28;20456;-71
2024/01/01 08:18:09;;;;;;;11.13;2.03;;;7.60;99.90;;;;;;5041094;28;20439;-71
2024/01/01 08:20:55;;;;;;;10.57;2.40;;;7.60;99.90;;;;;;5028121;28;20558;-71
2024/01/01 08:23:41;;;;;;;10.33;2.67;;;7.60;99.90;;;;;;5033835;28;20480;-71
2024/01/01 08:26:26;;;;;;;8.10;2.00;;;7.60;99.90;;;;;;5034968;28;20524;-71
2024/01/01 08:29:13;;;;;;;9.83;2.07;;;7.70;99.90;;;;;;5038096;28;20438;-71
2024/01/01 08:31:59;;;;;;;12.13;2.60;;;7.60;99.90;;;;;;5044453;28;20540;-72
2024/01/01 08:34:44;;;;;;;11.17;1.90;;;7.60;99.90;;;;;;5043766;28;20433;-71
2024/01/01 08:37:30;;;;;;;8.43;2.27;;;7.60;99.90;;;;;;5035544;28;20496;-71
2024/01/01 08:40:16;;;;;;;16.00;2.77;;;7.60;99.90;;;;;;5030347;28;20423;-72
2024/01/01 08:43:01;;;;;;;8.20;1.93;;;7.70;99.90;;;;;;5033599;28;20425;-73
2024/01/01 08:45:49;;;;;;;13.20;2.53;;;7.80;99.90;;;;;;5047320;28;20453;-71
2024/01/01 08:48:34;;;;;;;12.83;2.90;;;7.90;99.90;;;;;;5044189;28;20441;-71
2024/01/01 08:51:20;;;;;;;10.00;2.23;;;7.90;99.90;;;;;;5037316;28;20838;-71
2024/01/01 08:54:07;;;;;;;13.47;1.90;;;7.90;99.90;;;;;;5041244;28;20531;-73
2024/01/01 08:56:52;;;;;;;13.33;2.57;;;7.90;99.90;;;;;;5036334;28;20512;-72
2024/01/01 08:59:39;;;;;;;12.10;2.40;;;7.90;99.90;;;;;;5045522;28;20434;-71
2024/01/01 09:02:26;;;;;;;12.40;2.37;;;7.90;99.90;;;;;;5040855;28;20426;-71
2024/01/01 09:05:12;;;;;;;9.37;2.53;;;8.00;99.90;;;;;;5037402;28;21044;-72
2024/01/01 09:07:57;;;;;;;14.20;1.90;;;8.00;99.90;;;;;;5037406;28;20434;-72
2024/01/01 09:10:43;;;;;;;13.40;2.20;;;8.00;99.90;;;;;;5036883;28;20472;-72
2024/01/01 09:13:28;;;;;;;9.47;1.77;;;8.00;99.90;;;;;;5039629;28;20425;-71
2024/01/01 09:16:14;;;;;;;10.90;3.30;;;8.10;99.90;;;;;;5040202;28;20427;-73
2024/01/01 09:19:01;;;;;;;10.03;1.90;;;8.00;99.90;;;;;;5044044;28;20426;-70
2024/01/01 09:21:46;;;;;;;10.53;2.70;;;8.10;99.90;;;;;;5039101;28;20418;-73
2024/01/01 09:24:32;;;;;;;11.93;3.70;;;8.10;99.90;;;;;;5051486;28;20557;-70
2024/01/01 09:27:17;;;;;;;8.03;2.07;;;8.20;99.90;;;;;;5044878;28;20484;-71
2024/01/01 09:30:04;;;;;;;15.20;2.87;;;8.20;99.90;;;;;;5029122;28;20481;-71
2024/01/01 09:32:49;;;;;;;4.90;1.80;;;8.20;99.90;;;;;;5040049;28;21080;-71
2024/01/01 09:35:36;;;;;;;6.47;2.93;;;8.30;99.90;;;;;;5034480;28;20468;-71
2024/01/01 09:38:22;;;;;;;15.63;2.10;;;8.40;99.90;;;;;;5044153;28;20482;-71
2024/01/01 09:41:11;;;;;;;13.80;3.03;;;8.40;99.90;;;;;;5037973;28;20448;-71
2024/01/01 09:43:57;;;;;;;8.10;2.30;;;8.40;99.90;;;;;;5038986;28;20464;-70
2024/01/01 09:46:44;;;;;;;11.97;2.43;;;8.50;99.90;;;;;;5046926;28;20864;-70
2024/01/01 09:49:29;;;;;;;14.20;2.00;;;8.50;99.90;;;;;;5044494;28;20480;-74
2024/01/01 09:52:16;;;;;;;9.00;2.30;;;8.50;99.90;;;;;;5037865;28;20453;-71
2024/01/01 09:55:02;;;;;;;13.80;2.37;;;8.40;99.90;;;;;;5041584;28;20451;-70
2024/01/01 09:57:48;;;;;;;13.83;2.97;;;8.40;99.90;;;;;;5035412;28;20446;-71
2024/01/01 10:00:33;;;;;;;11.50;3.43;;;8.30;99.90;;;;;;5042282;28;20422;-72
2024/01/01 10:03:20;;;;;;;13.63;3.20;;;8.30;99.90;;;;;;5051340;28;20446;-70
2024/01/01 10:06:11;;;;;;;7.97;3.23;;;8.40;99.90;;;;;;5047322;28;20808;-71
2024/01/01 10:09:08;;;;;;;13.83;3.50;;;8.30;99.90;;;;;;5043573;28;20423;-71
2024/01/01 10:12:06;;;;;;;19.10;2.30;;;8.40;99.90;;;;;;5031195;28;21071;-72
2024/01/01 10:14:52;;;;;;;16.93;3.40;;;8.40;99.90;;;;;;5043193;28;20488;-71
2024/01/01 10:17:37;;;;;;;6.77;2.40;;;8.50;99.90;;;;;;5043164;28;20578;-72
2024/01/01 10:20:23;;;;;;;12.30;4.77;;;8.50;99.90;;;;;;5047529;28;20428;-72
2024/01/01 10:23:27;;;;;;;8.10;2.67;;;8.60;99.90;;;;;;5045845;28;20434;-71
2024/01/01 10:26:15;;;;;;;9.73;2.87;;;8.80;99.90;;;;;;5041207;28;20513;-73
2024/01/01 10:29:01;;;;;;;14.13;2.77;;;8.80;99.90;;;;;;5036347;28;20422;-72
2024/01/01 10:31:48;;;;;;;8.47;2.07;;;8.90;99.90;;;;;;5027458;28;20609;-71
2024/01/01 10:34:37;;;;;;;13.90;2.17;;;8.90;99.90;;;;;;5033456;28;20990;-72
2024/01/01 10:37:25;;;;;;;8.97;2.40;;;8.80;99.90;;;;;;5040642;28;20439;-71
2024/01/01 10:40:14;;;;;;;9.23;2.00;;;8.70;99.90;;;;;;5043048;28;20446;-72
2024/01/01 10:43:03;;;;;;;11.07;2.50;;;8.70;99.90;;;;;;5043629;28;20398;-71
2024/01/01 10:45:49;;;;;;;19.73;2.63;;;8.80;99.90;;;;;;5045353;28;20466;-73
2024/01/01 10:48:36;;;;;;;11.27;2.97;;;8.80;99.90;;;;;;5041175;28;20438;-73
2024/01/01 10:51:35;;;;;;;11.93;2.60;;;8.90;99.90;;;;;;5034013;28;20492;-71
2024/01/01 10:55:11;;;;;;;8.70;2.50;;;9.10;99.90;;;;;;5034005;28;20451;-71
2024/01/01 10:58:21;;;;;;;8.13;2.03;;;9.10;99.90;;;;;;4968821;28;20428;-71
2024/01/01 11:01:10;;;;;;;8.63;2.47;;;9.10;99.90;;;;;;5038236;28;20451;-71
2024/01/01 11:03:56;;;;;;;15.20;3.57;;;9.10;99.90;;;;;;5040223;28;20444;-69
2024/01/01 11:06:44;;;;;;;12.77;3.50;;;9.20;99.90;;;;;;5046788;28;20431;-70
2024/01/01 11:09:31;;;;;;;9.23;2.00;;;9.20;99.90;;;;;;5033809;28;20407;-70
2024/01/01 11:12:34;;;;;;;6.13;1.80;;;9.20;99.90;;;;;;5040841;28;20486;-75
2024/01/01 11:15:41;;;;;;;14.33;2.93;;;9.10;99.90;;;;;;5037397;28;20814;-70
2024/01/01 11:18:34;;;;;;;9.10;2.07;;;9.10;99.90;;;;;;5041615;28;20526;-70
2024/01/01 11:21:30;;;;;;;10.27;2.33;;;9.00;99.90;;;;;;5035143;28;20433;-73
2024/01/01 11:24:45;;;;;;;7.83;2.57;;;9.00;99.90;;;;;;5033312;28;20471;-72
2024/01/01 11:27:32;;;;;;;11.53;3.03;;;8.90;99.90;;;;;;5043518;28;20495;-72
2024/01/01 11:30:17;;;;;;;11.60;1.87;;;8.80;99.90;;;;;;5030498;28;20431;-73
2024/01/01 11:33:05;;;;;;;10.80;2.53;;;8.90;99.90;;;;;;5029633;28;20423;-71
2024/01/01 11:35:51;;;;;;;5.57;1.97;;;8.80;99.90;;;;;;5034673;28;20443;-72
2024/01/01 11:38:36;;;;;;;17.60;3.47;;;8.80;99.90;;;;;;5035473;28;20521;-72
2024/01/01 11:41:23;;;;;;;8.47;2.30;;;8.80;99.90;;;;;;5041532;28;20985;-73
2024/01/01 11:44:12;;;;;;;10.33;2.00;;;8.80;99.90;;;;;;5043767;28;20439;-72
2024/01/01 11:46:58;;;;;;;17.10;2.80;;;8.80;99.90;;;;;;5033724;28;20545;-73
2024/01/01 11:49:53;;;;;;;16.33;3.17;;;8.80;99.90;;;;;;5037518;28;20427;-72
2024/01/01 11:52:40;;;;;;;11.23;2.20;;;8.90;99.90;;;;;;5041967;28;20861;-72
2024/01/01 11:55:26;;;;;;;16.03;2.67;;;8.90;99.90;;;;;;5034690;28;20617;-72
2024/01/01 11:58:12;;;;;;;7.33;2.50;;;8.90;99.90;;;;;;5037313;28;20804;-71
2024/01/01 12:00:58;;;;;;;7.97;2.57;;;9.00;99.90;;;;;;5043658;28;20412;-70
2024/01/01 12:03:44;;;;;;;11.30;2.57;;;9.00;99.90;;;;;;5047557;28;20428;-72
2024/01/01 12:06:31;;;;;;;7.67;1.90;;;9.00;99.90;;;;;;5038738;28;21039;-73
2024/01/01 12:09:16;;;;;;;16.33;2.67;;;8.90;99.90;;;;;;5048221;28;20428;-73
2024/01/01 12:12:05;;;;;;;14.47;3.07;;;8.90;99.90;;;;;;5050590;28;20635;-73
2024/01/01 12:14:51;;;;;;;9.40;2.40;;;8.80;99.90;;;;;;5038031;28;20468;-73
2024/01/01 12:17:41;;;;;;;16.33;3.13;;;8.80;99.90;;;;;;5043128;28;20978;-73
2024/01/01 12:20:27;;;;;;;11.03;2.70;;;8.80;99.90;;;;;;5045813;28;20571;-73
2024/01/01 12:23:17;;;;;;;10.93;2.57;;;8.80;99.90;;;;;;5048882;28;20475;-73
2024/01/01 12:26:03;;;;;;;18.93;3.33;;;8.80;99.90;;;;;;5042213;28;21093;-73
2024/01/01 12:29:11;;;;;;;6.03;1.80;;;8.70;99.90;;;;;;5050439;28;20430;-73
2024/01/01 12:31:56;;;;;;;11.87;2.20;;;8.80;99.90;;;;;;5045566;28;20474;-73
2024/01/01 12:34:42;;;;;;;12.90;2.57;;;8.80;99.90;;;;;;5045628;28;20442;-72
2024/01/01 12:37:28;;;;;;;3.67;1.83;;;8.80;99.90;;;;;;5036415;28;20450;-73
2024/01/01 12:40:15;;;;;;;8.87;2.60;;;8.70;99.90;;;;;;5042258;28;20570;-73
2024/01/01 12:43:01;;;;;;;8.60;1.90;;;8.70;99.90;;;;;;5043255;28;20412;-71
2024/01/01 12:45:47;;;;;;;15.77;3.77;;;8.60;99.90;;;;;;5041634;28;20810;-72
2024/01/01 12:48:34;;;;;;;22.73;3.33;;;8.60;99.90;;;;;;5048596;28;20574;-72
2024/01/01 12:51:23;;;;;;;13.93;2.57;;;8.60;99.90;;;;;;5046296;28;20962;-72
2024/01/01 12:54:08;;;;;;;8.80;2.70;;;8.60;99.90;;;;;;5039831;28;20450;-72
2024/01/01 12:56:55;;;;;;;10.67;2.73;;;8.70;99.90;;;;;;5040325;28;20434;-73
2024/01/01 12:59:41;;;;;;;21.30;3.00;;;8.60;99.90;;;;;;5045987;28;20515;-72
2024/01/01 13:02:27;;;;;;;14.07;3.30;;;8.70;99.90;;;;;;5043111;28;20429;-73
2024/01/01 13:05:13;;;;;;;15.30;2.93;;;8.60;99.90;;;;;;5043246;28;20459;-72
2024/01/01 13:07:59;;;;;;;16.70;2.77;;;8.70;99.90;;;;;;5035549;28;20941;-73
2024/01/01 13:10:44;;;;;;;6.60;2.20;;;8.70;99.90;;;;;;5047597;28;20985;-73
2024/01/01 13:13:32;;;;;;;13.13;3.27;;;8.80;99.90;;;;;;5048444;28;20415;-73
2024/01/01 13:16:17;;;;;;;16.00;2.33;;;8.80;99.90;;;;;;5036949;28;20811;-73
2024/01/01 13:19:03;;;;;;;10.73;3.33;;;8.90;99.90;;;;;;5045995;28;20431;-73
2024/01/01 13:21:49;;;;;;;12.57;2.63;;;8.90;99.90;;;;;;5044395;28;20867;-72
2024/01/01 13:24:35;;;;;;;12.17;4.13;;;9.00;99.90;;;;;;5039159;28;20603;-73
2024/01/01 13:27:21;;;;;;;14.30;2.70;;;9.10;99.90;;;;;;5045695;28;20948;-73
2024/01/01 13:30:09;;;;;;;16.23;2.67;;;9.10;99.90;;;;;;5047707;28;20440;-72
2024/01/01 13:32:55;;;;;;;18.87;3.20;;;9.10;99.90;;;;;;5045173;28;20456;-72
2024/01/01 13:35:42;;;;;;;14.63;3.20;;;9.10;99.90;;;;;;5043908;28;20560;-72
2024/01/01 13:38:27;;;;;;;12.90;2.50;;;9.10;99.90;;;;;;5044286;28;20809;-72
2024/01/01 13:41:13;;;;;;;16.70;3.47;;;9.10;99.90;;;;;;5043483;28;20439;-72
2024/01/01 13:43:58;;;;;;;15.33;3.20;;;9.10;99.90;;;;;;5045894;28;21117;-72
2024/01/01 13:46:46;;;;;;;22.83;2.90;;;9.10;99.90;;;;;;5044937;28;20523;-72
2024/01/01 13:49:33;;;;;;;16.47;2.63;;;9.10;99.90;;;;;;5043380;28;20444;-73
2024/01/01 13:52:19;;;;;;;13.80;2.57;;;9.20;99.90;;;;;;5045140;28;21156;-72
2024/01/01 13:55:06;;;;;;;11.23;2.27;;;9.20;99.90;;;;;;5029264;28;20434;-72
2024/01/01 13:57:51;;;;;;;14.77;2.83;;;9.20;99.90;;;;;;5035739;28;20968;-72
2024/01/01 14:00:37;;;;;;;17.30;3.30;;;9.20;99.90;;;;;;5045089;28;20430;-72
2024/01/01 14:03:24;;;;;;;9.67;2.30;;;9.30;99.90;;;;;;5044000;28;20715;-72
2024/01/01 14:06:11;;;;;;;13.73;2.37;;;9.30;99.90;;;;;;5047042;28;20434;-72
2024/01/01 14:08:56;;;;;;;12.40;2.93;;;9.20;99.90;;;;;;5035722;28;20560;-72
2024/01/01 14:11:47;;;;;;;10.80;2.70;;;9.20;99.90;;;;;;5046030;28;20503;-72
2024/01/01 14:14:32;;;;;;;14.70;3.50;;;9.20;99.90;;;;;;5044771;28;21077;-72
2024/01/01 14:17:18;;;;;;;23.43;3.00;;;9.20;99.90;;;;;;5045562;28;20432;-72
2024/01/01 14:20:06;;;;;;;18.33;3.30;;;9.20;99.90;;;;;;5045429;28;20479;-72
2024/01/01 14:22:52;;;;;;;14.03;2.80;;;9.20;99.90;;;;;;5041691;28;20402;-72
2024/01/01 14:25:38;;;;;;;8.03;3.47;;;9.20;99.90;;;;;;5038179;28;21033;-72
2024/01/01 14:28:24;;;;;;;17.53;2.73;;;9.20;99.90;;;;;;5044162;28;20504;-72
2024/01/01 14:31:14;;;;;;;22.63;3.43;;;9.10;99.90;;;;;;5047070;28;20429;-72
2024/01/01 14:33:59;;;;;;;13.60;3.60;;;9.10;99.90;;;;;;5040774;28;20992;-72